Time,TemperatureF,DewpointF,PressureIn,WindDirection,WindDirectionDegrees,WindSpeedMPH,WindSpeedGustMPH,Humidity,HourlyPrecipIn,Conditions,Clouds,dailyrainin,SoftwareType,DateUTC
2013-03-01 00:00:00,34.0,17.3,29.79,WSW,248,0.0,0.0,50,0.00,,CLR,0.00,VWS V14.01,2013-03-01 05:00:00,
2013-03-01 00:01:00,39.0,39.0,29.50,East,90,2.5,2.5,100,0.00,,-RA,0.00,VWS V14.01,2013-03-01 05:01:00,
2013-03-01 00:02:00,33.8,17.1,29.79,WSW,248,1.3,1.3,50,0.00,,CLR,0.00,VWS V14.01,2013-03-01 05:02:00,
2013-03-01 00:06:00,33.8,17.1,29.76,West,270,0.0,0.0,50,0.00,,CLR,0.00,VWS V14.01,2013-03-01 05:06:00,
2013-03-01 00:11:00,33.8,15.7,29.76,West,270,0.0,0.0,47,0.00,,CLR,0.00,VWS V14.01,2013-03-01 05:11:00,
2013-03-01 00:16:00,33.3,20.1,29.76,WSW,248,0.0,0.0,58,0.00,,CLR,0.00,VWS V14.01,2013-03-01 05:16:00,
2013-03-01 00:21:00,33.3,16.6,29.79,West,270,0.0,0.0,50,0.00,,CLR,0.00,VWS V14.01,2013-03-01 05:21:00,
2013-03-01 00:26:00,32.9,22.4,29.79,West,270,0.0,0.0,65,0.00,,CLR,0.00,VWS V14.01,2013-03-01 05:26:00,
2013-03-01 00:31:00,32.9,22.8,29.79,WNW,292,0.0,0.0,66,0.00,,CLR,0.00,VWS V14.01,2013-03-01 05:31:00,
2013-03-01 00:36:00,32.7,18.4,29.79,WNW,292,0.0,0.0,55,0.00,,CLR,0.00,VWS V14.01,2013-03-01 05:36:00,
2013-03-01 00:41:00,32.7,21.5,29.79,West,270,0.0,0.0,63,0.00,,CLR,0.00,VWS V14.01,2013-03-01 05:41:00,
2013-03-01 00:46:00,32.7,18.4,29.79,NW,315,0.0,0.0,55,0.00,,CLR,0.00,VWS V14.01,2013-03-01 05:46:00,
2013-03-01 00:52:00,33.6,21.2,29.79,West,270,1.1,1.1,60,0.00,,CLR,0.00,VWS V14.01,2013-03-01 05:52:00,
2013-03-01 00:57:00,33.4,21.1,29.79,West,270,0.0,0.0,60,0.00,,CLR,0.00,VWS V14.01,2013-03-01 05:57:00,
2013-03-01 01:02:00,33.3,20.9,29.79,West,270,0.0,0.0,60,0.00,,CLR,0.00,VWS V14.01,2013-03-01 06:02:00,
2013-03-01 01:07:00,33.1,20.7,29.79,West,270,0.0,0.0,60,0.00,,CLR,0.00,VWS V14.01,2013-03-01 06:07:00,
2013-03-01 01:12:00,33.1,18.7,29.79,NW,315,0.0,0.0,55,0.00,,CLR,0.00,VWS V14.01,2013-03-01 06:12:00,
2013-03-01 01:17:00,33.1,19.9,29.79,WNW,292,0.0,0.0,58,0.00,,CLR,0.00,VWS V14.01,2013-03-01 06:17:00,
2013-03-01 01:22:00,32.9,21.7,29.79,WNW,292,0.0,0.0,63,0.00,,CLR,0.00,VWS V14.01,2013-03-01 06:22:00,
2013-03-01 01:27:00,32.7,17.5,29.79,NNW,338,0.0,0.0,53,0.00,,CLR,0.00,VWS V14.01,2013-03-01 06:27:00,
2013-03-01 01:32:00,33.1,17.8,29.79,NNW,338,2.7,2.7,53,0.00,,CLR,0.00,VWS V14.01,2013-03-01 06:32:00,
2013-03-01 01:37:00,33.8,18.0,29.79,West,270,1.6,1.6,52,0.00,,CLR,0.00,VWS V14.01,2013-03-01 06:37:00,
2013-03-01 01:43:00,33.8,17.1,29.79,NNW,338,2.2,2.2,50,0.00,,CLR,0.00,VWS V14.01,2013-03-01 06:43:00,
2013-03-01 01:48:00,34.0,15.9,29.79,NNW,338,2.2,2.2,47,0.00,,CLR,0.00,VWS V14.01,2013-03-01 06:48:00,
2013-03-01 01:53:00,34.2,15.6,29.79,NW,315,0.9,0.9,46,0.00,,CLR,0.00,VWS V14.01,2013-03-01 06:53:00,
2013-03-01 01:58:00,34.2,15.6,29.79,NNW,338,0.0,0.0,46,0.00,,CLR,0.00,VWS V14.01,2013-03-01 06:58:00,
2013-03-01 02:03:00,34.0,15.4,29.79,NNW,338,0.0,0.0,46,0.00,,CLR,0.00,VWS V14.01,2013-03-01 07:03:00,
2013-03-01 02:08:00,33.8,15.2,29.76,NNW,338,0.0,0.0,46,0.00,,CLR,0.00,VWS V14.01,2013-03-01 07:08:00,
2013-03-01 02:13:00,33.8,15.2,29.76,NNW,338,0.0,0.0,46,0.00,,CLR,0.00,VWS V14.01,2013-03-01 07:13:00,
2013-03-01 02:18:00,33.6,15.6,29.76,NNW,338,0.0,0.0,47,0.00,,CLR,0.00,VWS V14.01,2013-03-01 07:18:00,
2013-03-01 02:23:00,33.6,15.6,29.76,NNW,338,0.0,0.0,47,0.00,,CLR,0.00,VWS V14.01,2013-03-01 07:23:00,
2013-03-01 02:28:00,33.1,15.1,29.76,NW,315,0.0,0.0,47,0.00,,CLR,0.00,VWS V14.01,2013-03-01 07:28:00,
2013-03-01 02:33:00,32.7,18.4,29.76,West,270,0.9,0.9,55,0.00,,CLR,0.00,VWS V14.01,2013-03-01 07:33:00,
2013-03-01 02:38:00,32.5,18.2,29.79,West,270,0.0,0.0,55,0.00,,CLR,0.00,VWS V14.01,2013-03-01 07:38:00,
2013-03-01 02:43:00,32.5,17.3,29.79,SSW,202,0.9,0.9,53,0.00,,CLR,0.00,VWS V14.01,2013-03-01 07:43:00,
2013-03-01 02:49:00,32.2,17.0,29.79,SSW,202,0.0,0.0,53,0.00,,CLR,0.00,VWS V14.01,2013-03-01 07:49:00,
2013-03-01 02:54:00,31.8,16.6,29.79,SSW,202,0.0,0.0,53,0.00,,CLR,0.00,VWS V14.01,2013-03-01 07:54:00,
2013-03-01 02:59:00,31.5,16.3,29.79,SSW,202,0.0,0.0,53,0.00,,CLR,0.00,VWS V14.01,2013-03-01 07:59:00,
2013-03-01 03:04:00,31.1,18.1,29.79,SSW,202,0.0,0.0,58,0.00,,CLR,0.00,VWS V14.01,2013-03-01 08:04:00,
2013-03-01 03:09:00,30.9,16.7,29.79,SSW,202,0.0,0.0,55,0.00,,CLR,0.00,VWS V14.01,2013-03-01 08:09:00,
2013-03-01 03:14:00,30.7,16.5,29.79,SSW,202,0.0,0.0,55,0.00,,CLR,0.00,VWS V14.01,2013-03-01 08:14:00,
2013-03-01 03:19:00,30.6,23.0,29.79,West,270,0.0,0.0,73,0.00,,CLR,0.00,VWS V14.01,2013-03-01 08:19:00,
2013-03-01 03:24:00,29.8,23.2,29.76,West,270,1.3,1.3,76,0.00,,CLR,0.00,VWS V14.01,2013-03-01 08:24:00,
2013-03-01 03:29:00,29.1,23.1,29.76,West,270,2.5,2.5,78,0.00,,CLR,0.00,VWS V14.01,2013-03-01 08:29:00,
2013-03-01 03:34:00,28.9,23.0,29.76,WNW,292,0.0,0.0,78,0.00,,CLR,0.00,VWS V14.01,2013-03-01 08:34:00,
2013-03-01 03:39:00,28.9,23.0,29.79,WNW,292,0.0,0.0,78,0.00,,CLR,0.00,VWS V14.01,2013-03-01 08:39:00,
2013-03-01 03:44:00,28.9,23.0,29.79,West,270,0.0,0.0,78,0.00,,CLR,0.00,VWS V14.01,2013-03-01 08:44:00,
2013-03-01 03:49:00,28.9,22.6,29.79,West,270,0.0,0.0,77,0.00,,CLR,0.00,VWS V14.01,2013-03-01 08:49:00,
2013-03-01 03:54:00,28.8,22.2,29.79,North,0,0.0,0.0,76,0.00,,CLR,0.00,VWS V14.01,2013-03-01 08:54:00,
2013-03-01 03:59:00,28.8,22.8,29.79,NNW,338,0.0,0.0,78,0.00,,CLR,0.00,VWS V14.01,2013-03-01 08:59:00,
2013-03-01 04:04:00,28.8,23.4,29.79,West,270,0.0,0.0,80,0.00,,CLR,0.00,VWS V14.01,2013-03-01 09:04:00,
2013-03-01 04:09:00,28.8,23.4,29.79,West,270,0.0,0.0,80,0.00,,CLR,0.00,VWS V14.01,2013-03-01 09:09:00,
2013-03-01 04:15:00,28.8,23.4,29.79,West,270,0.0,0.0,80,0.00,,CLR,0.00,VWS V14.01,2013-03-01 09:15:00,
2013-03-01 04:20:00,28.6,22.9,29.79,WSW,248,0.0,0.0,79,0.00,,CLR,0.00,VWS V14.01,2013-03-01 09:20:00,
2013-03-01 04:25:00,28.6,23.2,29.79,WSW,248,0.0,0.0,80,0.00,,CLR,0.00,VWS V14.01,2013-03-01 09:25:00,
2013-03-01 04:30:00,28.4,23.6,29.79,WNW,292,1.6,1.6,82,0.00,,CLR,0.00,VWS V14.01,2013-03-01 09:30:00,
2013-03-01 04:35:00,28.0,23.8,29.79,West,270,0.9,0.9,84,0.00,,CLR,0.00,VWS V14.01,2013-03-01 09:35:00,
2013-03-01 04:40:00,28.0,23.5,29.79,WNW,292,0.0,0.0,83,0.00,,CLR,0.00,VWS V14.01,2013-03-01 09:40:00,
2013-03-01 04:45:00,28.0,23.3,29.79,NW,315,0.0,0.0,82,0.00,,CLR,0.00,VWS V14.01,2013-03-01 09:45:00,
2013-03-01 04:50:00,28.2,24.0,29.79,WNW,292,0.0,0.0,84,0.00,,CLR,0.00,VWS V14.01,2013-03-01 09:50:00,
2013-03-01 04:55:00,28.4,24.5,29.79,West,270,0.0,0.0,85,0.00,,CLR,0.00,VWS V14.01,2013-03-01 09:55:00,
2013-03-01 05:00:00,28.0,24.1,29.79,West,270,2.0,2.0,85,0.00,,CLR,0.00,VWS V14.01,2013-03-01 10:00:00,
2013-03-01 05:06:00,27.9,24.0,29.79,West,270,1.1,1.1,85,0.00,,CLR,0.00,VWS V14.01,2013-03-01 10:06:00,
2013-03-01 05:11:00,27.7,24.0,29.79,WSW,248,0.0,0.0,86,0.00,,CLR,0.00,VWS V14.01,2013-03-01 10:11:00,
2013-03-01 05:16:00,28.4,25.0,29.79,WSW,248,1.3,1.3,87,0.00,,CLR,0.00,VWS V14.01,2013-03-01 10:16:00,
2013-03-01 05:21:00,28.0,24.7,29.82,West,270,1.6,1.6,87,0.00,,CLR,0.00,VWS V14.01,2013-03-01 10:21:00,
2013-03-01 05:26:00,27.7,24.3,29.82,West,270,1.6,1.6,87,0.00,,CLR,0.00,VWS V14.01,2013-03-01 10:26:00,
2013-03-01 05:31:00,27.9,24.5,29.82,West,270,1.1,1.1,87,0.00,,CLR,0.00,VWS V14.01,2013-03-01 10:31:00,
2013-03-01 05:36:00,27.7,24.6,29.79,West,270,1.6,1.6,88,0.00,,CLR,0.00,VWS V14.01,2013-03-01 10:36:00,
2013-03-01 05:41:00,27.7,24.6,29.79,West,270,2.2,2.2,88,0.00,,CLR,0.00,VWS V14.01,2013-03-01 10:41:00,
2013-03-01 05:46:00,27.1,24.1,29.79,WSW,248,2.0,2.0,88,0.00,,CLR,0.00,VWS V14.01,2013-03-01 10:46:00,
2013-03-01 05:51:00,27.7,24.9,29.82,West,270,2.5,2.5,89,0.00,,CLR,0.00,VWS V14.01,2013-03-01 10:51:00,
2013-03-01 05:56:00,27.7,24.9,29.82,WNW,292,0.0,0.0,89,0.00,,CLR,0.00,VWS V14.01,2013-03-01 10:56:00,
2013-03-01 06:01:00,27.5,24.7,29.82,West,270,1.1,1.1,89,0.00,,CLR,0.00,VWS V14.01,2013-03-01 11:01:00,
2013-03-01 06:06:00,27.9,25.0,29.82,WSW,248,1.1,1.1,89,0.00,,CLR,0.00,VWS V14.01,2013-03-01 11:06:00,
2013-03-01 06:12:00,28.8,25.4,29.82,West,270,2.5,2.5,87,0.00,,CLR,0.00,VWS V14.01,2013-03-01 11:12:00,
2013-03-01 06:17:00,28.6,24.9,29.82,WNW,292,2.2,2.2,86,0.00,,CLR,0.00,VWS V14.01,2013-03-01 11:17:00,
2013-03-01 06:22:00,27.9,24.2,29.82,West,270,1.6,1.6,86,0.00,,CLR,0.00,VWS V14.01,2013-03-01 11:22:00,
2013-03-01 06:27:00,28.0,24.4,29.82,WSW,248,1.3,1.3,86,0.00,,CLR,0.00,VWS V14.01,2013-03-01 11:27:00,
2013-03-01 06:32:00,28.8,24.8,29.82,West,270,2.9,2.9,85,0.00,,CLR,0.00,VWS V14.01,2013-03-01 11:32:00,
2013-03-01 06:37:00,28.8,24.8,29.82,WNW,292,3.6,3.6,85,0.00,,CLR,0.00,VWS V14.01,2013-03-01 11:37:00,
2013-03-01 06:42:00,28.9,25.3,29.82,West,270,3.8,3.8,86,0.00,,CLR,0.00,VWS V14.01,2013-03-01 11:42:00,
2013-03-01 06:47:00,28.9,25.6,29.82,West,270,4.3,4.3,87,0.00,,CLR,0.00,VWS V14.01,2013-03-01 11:47:00,
2013-03-01 06:52:00,28.8,25.4,29.82,West,270,3.6,3.6,87,0.00,,CLR,0.00,VWS V14.01,2013-03-01 11:52:00,
2013-03-01 06:57:00,28.6,25.2,29.82,West,270,2.7,2.7,87,0.00,,CLR,0.00,VWS V14.01,2013-03-01 11:57:00,
2013-03-01 07:02:00,28.4,25.0,29.82,West,270,2.5,2.5,87,0.00,,CLR,0.00,VWS V14.01,2013-03-01 12:02:00,
2013-03-01 07:07:00,28.0,24.7,29.82,WSW,248,1.6,1.6,87,0.00,,CLR,0.00,VWS V14.01,2013-03-01 12:07:00,
2013-03-01 07:12:00,28.2,24.9,29.82,WSW,248,1.6,1.6,87,0.00,,CLR,0.00,VWS V14.01,2013-03-01 12:12:00,
2013-03-01 07:18:00,28.6,25.2,29.82,West,270,2.0,2.0,87,0.00,,CLR,0.00,VWS V14.01,2013-03-01 12:18:00,
2013-03-01 07:23:00,28.6,25.2,29.82,West,270,2.2,2.2,87,0.00,,CLR,0.00,VWS V14.01,2013-03-01 12:23:00,
2013-03-01 07:28:00,28.9,25.6,29.82,West,270,1.6,1.6,87,0.00,,CLR,0.00,VWS V14.01,2013-03-01 12:28:00,
2013-03-01 07:33:00,29.5,25.8,29.82,West,270,2.5,2.5,86,0.00,,CLR,0.00,VWS V14.01,2013-03-01 12:33:00,
2013-03-01 07:38:00,29.8,26.2,29.82,West,270,2.7,2.7,86,0.00,,CLR,0.00,VWS V14.01,2013-03-01 12:38:00,
2013-03-01 07:43:00,30.6,26.0,29.82,West,270,2.5,2.5,83,0.00,,CLR,0.00,VWS V14.01,2013-03-01 12:43:00,
2013-03-01 07:48:00,31.1,26.3,29.82,West,270,2.9,2.9,82,0.00,,CLR,0.00,VWS V14.01,2013-03-01 12:48:00,
2013-03-01 07:53:00,31.5,26.3,29.82,WNW,292,4.0,4.0,81,0.00,,CLR,0.00,VWS V14.01,2013-03-01 12:53:00,
2013-03-01 07:58:00,31.6,25.9,29.82,West,270,3.4,3.4,79,0.00,,CLR,0.00,VWS V14.01,2013-03-01 12:58:00,
2013-03-01 08:03:00,32.2,26.7,29.82,West,270,4.3,4.3,80,0.00,,CLR,0.00,VWS V14.01,2013-03-01 13:03:00,
2013-03-01 08:08:00,32.0,25.9,29.82,West,270,4.0,4.0,78,0.00,,CLR,0.00,VWS V14.01,2013-03-01 13:08:00,
2013-03-01 08:14:00,32.2,26.1,29.82,West,270,3.6,3.6,78,0.00,,CLR,0.00,VWS V14.01,2013-03-01 13:14:00,
2013-03-01 08:19:00,32.9,27.1,29.82,West,270,3.4,3.4,79,0.00,,CLR,0.00,VWS V14.01,2013-03-01 13:19:00,
2013-03-01 08:24:00,32.7,26.3,29.82,West,270,3.1,3.1,77,0.00,,CLR,0.00,VWS V14.01,2013-03-01 13:24:00,
2013-03-01 08:29:00,33.6,27.2,29.82,West,270,4.0,4.0,77,0.00,,CLR,0.00,VWS V14.01,2013-03-01 13:29:00,
2013-03-01 08:34:00,34.5,28.1,29.82,West,270,3.8,3.8,77,0.00,,CLR,0.00,VWS V14.01,2013-03-01 13:34:00,
2013-03-01 08:39:00,35.1,28.3,29.85,West,270,3.1,3.1,76,0.00,,CLR,0.00,VWS V14.01,2013-03-01 13:39:00,
2013-03-01 08:44:00,35.8,28.6,29.85,WNW,292,3.1,3.1,75,0.00,,CLR,0.00,VWS V14.01,2013-03-01 13:44:00,
2013-03-01 08:49:00,36.7,29.5,29.85,NW,315,3.6,3.6,75,0.00,,CLR,0.00,VWS V14.01,2013-03-01 13:49:00,
2013-03-01 08:54:00,37.4,28.5,29.85,WSW,248,3.8,3.8,70,0.00,,CLR,0.00,VWS V14.01,2013-03-01 13:54:00,
2013-03-01 08:59:00,37.9,28.0,29.85,West,270,3.4,3.4,67,0.00,,CLR,0.00,VWS V14.01,2013-03-01 13:59:00,
2013-03-01 09:04:00,39.4,28.2,29.85,WSW,248,5.4,5.4,64,0.00,,CLR,0.00,VWS V14.01,2013-03-01 14:04:00,
2013-03-01 09:09:00,39.7,27.4,29.85,NW,315,3.8,3.8,61,0.00,,CLR,0.00,VWS V14.01,2013-03-01 14:09:00,
2013-03-01 09:14:00,40.1,22.0,29.85,NW,315,3.8,3.8,48,0.00,,CLR,0.00,VWS V14.01,2013-03-01 14:14:00,
2013-03-01 09:19:00,40.6,23.9,29.85,WSW,248,3.6,3.6,51,0.00,,CLR,0.00,VWS V14.01,2013-03-01 14:19:00,
2013-03-01 09:24:00,41.2,21.5,29.82,West,270,8.1,8.1,45,0.00,,CLR,0.00,VWS V14.01,2013-03-01 14:24:00,
2013-03-01 09:29:00,42.1,22.3,29.82,WNW,292,3.6,3.6,45,0.00,,CLR,0.00,VWS V14.01,2013-03-01 14:29:00,
2013-03-01 09:34:00,42.3,22.5,29.85,West,270,2.7,2.7,45,0.00,,CLR,0.00,VWS V14.01,2013-03-01 14:34:00,
2013-03-01 09:39:00,42.8,22.4,29.85,WNW,292,4.9,4.9,44,0.00,,CLR,0.00,VWS V14.01,2013-03-01 14:39:00,
2013-03-01 09:44:00,43.0,22.6,29.85,WNW,292,4.0,4.0,44,0.00,,CLR,0.00,VWS V14.01,2013-03-01 14:44:00,
2013-03-01 09:50:00,43.2,22.7,29.85,West,270,5.6,5.6,44,0.00,,CLR,0.00,VWS V14.01,2013-03-01 14:50:00,
2013-03-01 09:55:00,43.9,23.4,29.85,NNW,338,4.3,4.3,44,0.00,,CLR,0.00,VWS V14.01,2013-03-01 14:55:00,
2013-03-01 10:00:00,43.9,23.4,29.85,WNW,292,4.9,4.9,44,0.00,,CLR,0.00,VWS V14.01,2013-03-01 15:00:00,
2013-03-01 10:05:00,44.2,23.7,29.85,WSW,248,2.7,2.7,44,0.00,,CLR,0.00,VWS V14.01,2013-03-01 15:05:00,
2013-03-01 10:10:00,44.1,23.6,29.85,WNW,292,4.7,4.7,44,0.00,,CLR,0.00,VWS V14.01,2013-03-01 15:10:00,
2013-03-01 10:15:00,44.8,24.2,29.85,NE,45,2.2,2.2,44,0.00,,CLR,0.00,VWS V14.01,2013-03-01 15:15:00,
2013-03-01 10:20:00,45.5,24.9,29.85,West,270,3.4,3.4,44,0.00,,CLR,0.00,VWS V14.01,2013-03-01 15:20:00,
2013-03-01 10:25:00,45.7,25.0,29.85,NW,315,1.6,1.6,44,0.00,,CLR,0.00,VWS V14.01,2013-03-01 15:25:00,
2013-03-01 10:30:00,45.9,25.2,29.85,NNW,338,2.7,2.7,44,0.00,,CLR,0.00,VWS V14.01,2013-03-01 15:30:00,
2013-03-01 10:35:00,45.9,25.2,29.85,North,0,4.3,4.3,44,0.00,,CLR,0.00,VWS V14.01,2013-03-01 15:35:00,
2013-03-01 10:40:00,46.0,25.4,29.85,NNW,338,2.5,2.5,44,0.00,,CLR,0.00,VWS V14.01,2013-03-01 15:40:00,
2013-03-01 10:45:00,46.0,25.4,29.85,NNW,338,2.7,2.7,44,0.00,,CLR,0.00,VWS V14.01,2013-03-01 15:45:00,
2013-03-01 10:51:00,46.4,25.1,29.82,WSW,248,6.3,6.3,43,0.00,,CLR,0.00,VWS V14.01,2013-03-01 15:51:00,
2013-03-01 10:56:00,46.4,25.1,29.82,NNE,22,3.8,3.8,43,0.00,,CLR,0.00,VWS V14.01,2013-03-01 15:56:00,
2013-03-01 11:01:00,46.2,25.5,29.82,WNW,292,2.5,2.5,44,0.00,,CLR,0.00,VWS V14.01,2013-03-01 16:01:00,
2013-03-01 11:06:00,46.0,25.4,29.82,WNW,292,3.8,3.8,44,0.00,,CLR,0.00,VWS V14.01,2013-03-01 16:06:00,
2013-03-01 11:11:00,45.9,25.2,29.82,West,270,7.4,7.4,44,0.00,,CLR,0.00,VWS V14.01,2013-03-01 16:11:00,
2013-03-01 11:16:00,45.7,25.0,29.82,SW,225,6.3,6.3,44,0.00,,CLR,0.00,VWS V14.01,2013-03-01 16:16:00,
2013-03-01 11:21:00,47.3,26.0,29.82,West,270,8.1,8.1,43,0.00,,CLR,0.00,VWS V14.01,2013-03-01 16:21:00,
2013-03-01 11:26:00,47.3,26.0,29.82,ESE,112,1.6,1.6,43,0.00,,CLR,0.00,VWS V14.01,2013-03-01 16:26:00,
2013-03-01 11:31:00,46.6,25.3,29.82,WNW,292,1.3,1.3,43,0.00,,CLR,0.00,VWS V14.01,2013-03-01 16:31:00,
2013-03-01 11:36:00,47.8,26.4,29.82,WNW,292,3.6,3.6,43,0.00,,BKN043,0.00,VWS V14.01,2013-03-01 16:36:00,
2013-03-01 11:41:00,46.8,25.5,29.82,NNE,22,2.9,2.9,43,0.00,,BKN043,0.00,VWS V14.01,2013-03-01 16:41:00,
2013-03-01 11:46:00,48.0,26.6,29.82,NW,315,3.6,3.6,43,0.00,,BKN043,0.00,VWS V14.01,2013-03-01 16:46:00,
2013-03-01 11:52:00,47.7,26.3,29.82,WNW,292,4.7,4.7,43,0.00,,BKN043,0.00,VWS V14.01,2013-03-01 16:52:00,
2013-03-01 11:57:00,46.9,25.6,29.82,NW,315,0.9,0.9,43,0.00,,BKN043,0.00,VWS V14.01,2013-03-01 16:57:00,
2013-03-01 12:02:00,47.3,26.0,29.82,North,0,2.5,2.5,43,0.00,,BKN043,0.00,VWS V14.01,2013-03-01 17:02:00,
2013-03-01 12:07:00,47.7,26.3,29.82,WSW,248,6.3,6.3,43,0.00,,BKN043,0.00,VWS V14.01,2013-03-01 17:07:00,
2013-03-01 12:12:00,47.3,26.0,29.82,NW,315,2.9,2.9,43,0.00,,BKN043,0.00,VWS V14.01,2013-03-01 17:12:00,
2013-03-01 12:17:00,46.9,25.6,29.82,WSW,248,3.6,3.6,43,0.00,,BKN043,0.00,VWS V14.01,2013-03-01 17:17:00,
2013-03-01 12:22:00,47.8,26.4,29.82,WSW,248,4.3,4.3,43,0.00,,BKN043,0.00,VWS V14.01,2013-03-01 17:22:00,
2013-03-01 12:27:00,48.2,26.8,29.82,WNW,292,3.4,3.4,43,0.00,,BKN043,0.00,VWS V14.01,2013-03-01 17:27:00,
2013-03-01 12:32:00,49.8,28.2,29.82,WNW,292,2.9,2.9,43,0.00,,BKN043,0.00,VWS V14.01,2013-03-01 17:32:00,
2013-03-01 12:37:00,48.4,26.9,29.79,WNW,292,2.9,2.9,43,0.00,,OVC049,0.00,VWS V14.01,2013-03-01 17:37:00,
2013-03-01 12:42:00,48.4,26.9,29.79,WNW,292,2.9,2.9,43,0.00,,OVC049,0.00,VWS V14.01,2013-03-01 17:42:00,
2013-03-01 12:47:00,47.7,26.3,29.79,WNW,292,6.3,6.3,43,0.00,,OVC049,0.00,VWS V14.01,2013-03-01 17:47:00,
2013-03-01 12:52:00,47.8,26.4,29.79,WSW,248,7.8,7.8,43,0.00,,OVC049,0.00,VWS V14.01,2013-03-01 17:52:00,
2013-03-01 12:57:00,48.6,27.1,29.79,WNW,292,6.5,6.5,43,0.00,,OVC049,0.00,VWS V14.01,2013-03-01 17:57:00,
2013-03-01 13:03:00,48.4,26.9,29.79,West,270,3.1,3.1,43,0.00,,OVC049,0.00,VWS V14.01,2013-03-01 18:03:00,
2013-03-01 13:08:00,48.2,26.8,29.79,West,270,8.7,8.7,43,0.00,,OVC049,0.00,VWS V14.01,2013-03-01 18:08:00,
2013-03-01 13:13:00,47.7,26.3,29.79,West,270,5.4,5.4,43,0.00,,OVC049,0.00,VWS V14.01,2013-03-01 18:13:00,
2013-03-01 13:18:00,48.2,26.8,29.79,WNW,292,2.7,2.7,43,0.00,,OVC049,0.00,VWS V14.01,2013-03-01 18:18:00,
2013-03-01 13:23:00,48.0,26.6,29.79,WNW,292,2.5,2.5,43,0.00,,OVC049,0.00,VWS V14.01,2013-03-01 18:23:00,
2013-03-01 13:28:00,47.7,26.3,29.79,WNW,292,10.3,10.3,43,0.00,,OVC049,0.00,VWS V14.01,2013-03-01 18:28:00,
2013-03-01 13:33:00,48.4,26.9,29.79,WNW,292,2.5,2.5,43,0.00,,OVC049,0.00,VWS V14.01,2013-03-01 18:33:00,
2013-03-01 13:38:00,47.8,26.4,29.79,WSW,248,2.7,2.7,43,0.00,,OVC049,0.00,VWS V14.01,2013-03-01 18:38:00,
2013-03-01 13:43:00,48.2,26.8,29.79,WNW,292,6.5,6.5,43,0.00,,OVC049,0.00,VWS V14.01,2013-03-01 18:43:00,
2013-03-01 13:48:00,48.2,26.8,29.79,WSW,248,6.5,6.5,43,0.00,,OVC049,0.00,VWS V14.01,2013-03-01 18:48:00,
2013-03-01 13:53:00,48.2,26.8,29.79,North,0,4.7,4.7,43,0.00,,OVC049,0.00,VWS V14.01,2013-03-01 18:53:00,
2013-03-01 13:58:00,48.7,27.3,29.79,WNW,292,3.4,3.4,43,0.00,,OVC049,0.00,VWS V14.01,2013-03-01 18:58:00,
2013-03-01 14:03:00,48.9,27.4,29.79,WNW,292,3.4,3.4,43,0.00,,OVC049,0.00,VWS V14.01,2013-03-01 19:03:00,
2013-03-01 14:08:00,49.3,27.8,29.79,NW,315,5.4,5.4,43,0.00,,OVC049,0.00,VWS V14.01,2013-03-01 19:08:00,
2013-03-01 14:14:00,48.2,26.8,29.79,West,270,8.5,8.5,43,0.00,,OVC049,0.00,VWS V14.01,2013-03-01 19:14:00,
2013-03-01 14:19:00,48.9,27.4,29.79,WNW,292,3.8,3.8,43,0.00,,OVC049,0.00,VWS V14.01,2013-03-01 19:19:00,
2013-03-01 14:24:00,48.9,27.4,29.79,WSW,248,7.6,7.6,43,0.00,,OVC049,0.00,VWS V14.01,2013-03-01 19:24:00,
2013-03-01 14:29:00,48.7,27.3,29.79,North,0,2.9,2.9,43,0.00,,OVC049,0.00,VWS V14.01,2013-03-01 19:29:00,
2013-03-01 14:34:00,48.7,27.3,29.79,NNW,338,3.1,3.1,43,0.00,,OVC049,0.00,VWS V14.01,2013-03-01 19:34:00,
2013-03-01 14:39:00,48.6,27.1,29.79,NW,315,3.6,3.6,43,0.00,,OVC049,0.00,VWS V14.01,2013-03-01 19:39:00,
2013-03-01 14:44:00,48.9,27.4,29.79,West,270,4.3,4.3,43,0.00,,OVC049,0.00,VWS V14.01,2013-03-01 19:44:00,
2013-03-01 14:49:00,49.1,27.6,29.79,NW,315,2.9,2.9,43,0.00,,OVC049,0.00,VWS V14.01,2013-03-01 19:49:00,
2013-03-01 14:54:00,48.7,27.3,29.79,NNE,22,1.6,1.6,43,0.00,,OVC049,0.00,VWS V14.01,2013-03-01 19:54:00,
2013-03-01 14:59:00,49.5,27.9,29.79,NW,315,2.9,2.9,43,0.00,,OVC049,0.00,VWS V14.01,2013-03-01 19:59:00,
2013-03-01 15:04:00,48.7,27.3,29.79,WSW,248,2.2,2.2,43,0.00,,OVC049,0.00,VWS V14.01,2013-03-01 20:04:00,
2013-03-01 15:09:00,48.7,27.3,29.79,WNW,292,3.4,3.4,43,0.00,,OVC049,0.00,VWS V14.01,2013-03-01 20:09:00,
2013-03-01 15:14:00,49.1,27.6,29.79,NNW,338,3.4,3.4,43,0.00,,OVC049,0.00,VWS V14.01,2013-03-01 20:14:00,
2013-03-01 15:19:00,48.4,26.9,29.79,West,270,6.3,6.3,43,0.00,,OVC049,0.00,VWS V14.01,2013-03-01 20:19:00,
2013-03-01 15:24:00,49.3,27.8,29.79,NNE,22,4.0,4.0,43,0.00,,OVC049,0.00,VWS V14.01,2013-03-01 20:24:00,
2013-03-01 15:29:00,49.3,27.8,29.79,NW,315,1.6,1.6,43,0.00,,OVC049,0.00,VWS V14.01,2013-03-01 20:29:00,
2013-03-01 15:34:00,50.2,28.6,29.79,ENE,68,1.6,1.6,43,0.00,,OVC049,0.00,VWS V14.01,2013-03-01 20:34:00,
2013-03-01 15:39:00,49.8,28.2,29.79,WNW,292,3.6,3.6,43,0.00,,OVC049,0.00,VWS V14.01,2013-03-01 20:39:00,
2013-03-01 15:44:00,49.5,27.9,29.79,NNW,338,2.9,2.9,43,0.00,,OVC049,0.00,VWS V14.01,2013-03-01 20:44:00,
2013-03-01 15:50:00,48.9,27.4,29.76,NNW,338,3.6,3.6,43,0.00,,OVC049,0.00,VWS V14.01,2013-03-01 20:50:00,
2013-03-01 15:55:00,49.3,27.8,29.76,North,0,3.1,3.1,43,0.00,,OVC049,0.00,VWS V14.01,2013-03-01 20:55:00,
2013-03-01 16:00:00,49.3,27.8,29.76,NNW,338,4.7,4.7,43,0.00,,OVC049,0.00,VWS V14.01,2013-03-01 21:00:00,
2013-03-01 16:05:00,49.1,27.6,29.79,NNW,338,5.8,5.8,43,0.00,,OVC049,0.00,VWS V14.01,2013-03-01 21:05:00,
2013-03-01 16:10:00,48.9,27.4,29.79,NNW,338,4.3,4.3,43,0.00,,OVC049,0.00,VWS V14.01,2013-03-01 21:10:00,
2013-03-01 16:15:00,48.9,27.4,29.79,NNW,338,6.3,6.3,43,0.00,,OVC049,0.00,VWS V14.01,2013-03-01 21:15:00,
2013-03-01 16:20:00,48.7,27.3,29.79,North,0,3.1,3.1,43,0.00,,OVC049,0.00,VWS V14.01,2013-03-01 21:20:00,
2013-03-01 16:25:00,48.7,27.3,29.79,NW,315,3.4,3.4,43,0.00,,OVC049,0.00,VWS V14.01,2013-03-01 21:25:00,
2013-03-01 16:30:00,48.6,27.1,29.79,NNW,338,3.1,3.1,43,0.00,,OVC049,0.00,VWS V14.01,2013-03-01 21:30:00,
2013-03-01 16:35:00,48.6,27.1,29.76,NNW,338,2.7,2.7,43,0.00,,OVC049,0.00,VWS V14.01,2013-03-01 21:35:00,
2013-03-01 16:40:00,48.4,26.9,29.76,NNW,338,3.4,3.4,43,0.00,,OVC055,0.00,VWS V14.01,2013-03-01 21:40:00,
2013-03-01 16:45:00,48.2,26.8,29.76,NNW,338,2.9,2.9,43,0.00,,OVC055,0.00,VWS V14.01,2013-03-01 21:45:00,
2013-03-01 16:50:00,48.4,26.9,29.79,North,0,3.4,3.4,43,0.00,,OVC055,0.00,VWS V14.01,2013-03-01 21:50:00,
2013-03-01 16:55:00,48.2,26.8,29.79,North,0,4.3,4.3,43,0.00,,OVC055,0.00,VWS V14.01,2013-03-01 21:55:00,
2013-03-01 17:00:00,48.2,26.8,29.79,NW,315,2.9,2.9,43,0.00,,OVC055,0.00,VWS V14.01,2013-03-01 22:00:00,
2013-03-01 17:05:00,48.0,26.6,29.79,NNE,22,4.0,4.0,43,0.00,,OVC055,0.00,VWS V14.01,2013-03-01 22:05:00,
2013-03-01 17:11:00,48.0,26.6,29.79,NW,315,3.8,3.8,43,0.00,,OVC055,0.00,VWS V14.01,2013-03-01 22:11:00,
2013-03-01 17:16:00,48.0,26.6,29.79,NNW,338,1.6,1.6,43,0.00,,OVC055,0.00,VWS V14.01,2013-03-01 22:16:00,
2013-03-01 17:21:00,47.8,26.4,29.79,NNW,338,2.7,2.7,43,0.00,,OVC055,0.00,VWS V14.01,2013-03-01 22:21:00,
2013-03-01 17:26:00,47.8,26.4,29.79,West,270,2.7,2.7,43,0.00,,OVC055,0.00,VWS V14.01,2013-03-01 22:26:00,
2013-03-01 17:31:00,47.8,26.4,29.79,WNW,292,0.9,0.9,43,0.00,,OVC055,0.00,VWS V14.01,2013-03-01 22:31:00,
2013-03-01 17:36:00,47.7,26.3,29.79,WNW,292,0.0,0.0,43,0.00,,OVC055,0.00,VWS V14.01,2013-03-01 22:36:00,
2013-03-01 17:41:00,47.7,26.3,29.79,WNW,292,1.3,1.3,43,0.00,,OVC055,0.00,VWS V14.01,2013-03-01 22:41:00,
2013-03-01 17:46:00,47.5,26.1,29.79,West,270,1.6,1.6,43,0.00,,OVC055,0.00,VWS V14.01,2013-03-01 22:46:00,
2013-03-01 17:51:00,47.5,26.1,29.79,NNW,338,0.9,0.9,43,0.00,,OVC055,0.00,VWS V14.01,2013-03-01 22:51:00,
2013-03-01 17:56:00,47.3,26.0,29.79,NNW,338,2.0,2.0,43,0.00,,OVC055,0.00,VWS V14.01,2013-03-01 22:56:00,
2013-03-01 18:02:00,47.1,25.8,29.79,NW,315,1.3,1.3,43,0.00,,OVC055,0.00,VWS V14.01,2013-03-01 23:02:00,
2013-03-01 18:07:00,47.1,25.8,29.79,WNW,292,2.0,2.0,43,0.00,,OVC055,0.00,VWS V14.01,2013-03-01 23:07:00,
2013-03-01 18:12:00,47.1,25.8,29.79,NNW,338,2.5,2.5,43,0.00,,OVC055,0.00,VWS V14.01,2013-03-01 23:12:00,
2013-03-01 18:17:00,46.9,25.6,29.79,NNW,338,2.0,2.0,43,0.00,,OVC055,0.00,VWS V14.01,2013-03-01 23:17:00,
2013-03-01 18:22:00,46.9,25.6,29.79,North,0,2.5,2.5,43,0.00,,OVC055,0.00,VWS V14.01,2013-03-01 23:22:00,
2013-03-01 18:27:00,46.8,25.5,29.79,WNW,292,1.6,1.6,43,0.00,,OVC055,0.00,VWS V14.01,2013-03-01 23:27:00,
2013-03-01 18:32:00,46.6,25.3,29.79,North,0,1.3,1.3,43,0.00,,OVC055,0.00,VWS V14.01,2013-03-01 23:32:00,
2013-03-01 18:37:00,46.2,25.5,29.79,NNE,22,2.5,2.5,44,0.00,,OVC055,0.00,VWS V14.01,2013-03-01 23:37:00,
2013-03-01 18:42:00,46.2,25.5,29.79,NNE,22,2.2,2.2,44,0.00,,OVC055,0.00,VWS V14.01,2013-03-01 23:42:00,
2013-03-01 18:47:00,45.7,25.0,29.79,NNE,22,2.7,2.7,44,0.00,,OVC055,0.00,VWS V14.01,2013-03-01 23:47:00,
2013-03-01 18:52:00,45.3,24.7,29.79,NE,45,2.2,2.2,44,0.00,,OVC055,0.00,VWS V14.01,2013-03-01 23:52:00,
2013-03-01 18:57:00,45.1,24.5,29.79,NNE,22,2.0,2.0,44,0.00,,OVC055,0.00,VWS V14.01,2013-03-01 23:57:00,
2013-03-01 19:03:00,45.0,24.4,29.79,NNE,22,1.6,1.6,44,0.00,,OVC055,0.00,VWS V14.01,2013-03-02 00:03:00,
2013-03-01 19:08:00,44.8,24.2,29.82,NNE,22,0.0,0.0,44,0.00,,OVC060,0.00,VWS V14.01,2013-03-02 00:08:00,
2013-03-01 19:13:00,44.6,24.0,29.82,NNE,22,0.0,0.0,44,0.00,,OVC060,0.00,VWS V14.01,2013-03-02 00:13:00,
2013-03-01 19:18:00,44.6,24.0,29.82,NNE,22,1.6,1.6,44,0.00,,OVC060,0.00,VWS V14.01,2013-03-02 00:18:00,
2013-03-01 19:23:00,44.4,23.9,29.82,NE,45,2.5,2.5,44,0.00,,OVC060,0.00,VWS V14.01,2013-03-02 00:23:00,
2013-03-01 19:28:00,44.2,23.7,29.82,NNE,22,1.6,1.6,44,0.00,,OVC060,0.00,VWS V14.01,2013-03-02 00:28:00,
2013-03-01 19:33:00,44.1,23.6,29.82,NE,45,3.1,3.1,44,0.00,,OVC060,0.00,VWS V14.01,2013-03-02 00:33:00,
2013-03-01 19:38:00,43.9,23.4,29.79,NE,45,3.4,3.4,44,0.00,,OVC060,0.00,VWS V14.01,2013-03-02 00:38:00,
2013-03-01 19:43:00,43.9,23.4,29.79,NNE,22,0.0,0.0,44,0.00,,OVC060,0.00,VWS V14.01,2013-03-02 00:43:00,
2013-03-01 19:48:00,43.7,23.2,29.79,NNE,22,0.0,0.0,44,0.00,,OVC060,0.00,VWS V14.01,2013-03-02 00:48:00,
2013-03-01 19:53:00,43.7,23.2,29.82,NNE,22,0.0,0.0,44,0.00,,OVC060,0.00,VWS V14.01,2013-03-02 00:53:00,
2013-03-01 19:58:00,43.5,23.1,29.82,NNE,22,0.0,0.0,44,0.00,,OVC060,0.00,VWS V14.01,2013-03-02 00:58:00,
2013-03-01 20:03:00,43.3,22.9,29.82,NNE,22,0.0,0.0,44,0.00,,OVC060,0.00,VWS V14.01,2013-03-02 01:03:00,
2013-03-01 20:08:00,43.2,22.7,29.82,NNE,22,0.0,0.0,44,0.00,,OVC060,0.00,VWS V14.01,2013-03-02 01:08:00,
2013-03-01 20:14:00,43.0,22.6,29.82,NNE,22,0.0,0.0,44,0.00,,OVC060,0.00,VWS V14.01,2013-03-02 01:14:00,
2013-03-01 20:19:00,43.0,22.6,29.82,NNE,22,0.0,0.0,44,0.00,,OVC060,0.00,VWS V14.01,2013-03-02 01:19:00,
2013-03-01 20:24:00,43.2,22.7,29.82,NNE,22,2.2,2.2,44,0.00,,OVC060,0.00,VWS V14.01,2013-03-02 01:24:00,
2013-03-01 20:29:00,43.5,23.1,29.82,NNE,22,1.3,1.3,44,0.00,,OVC060,0.00,VWS V14.01,2013-03-02 01:29:00,
2013-03-01 20:34:00,43.7,23.2,29.82,NNE,22,1.3,1.3,44,0.00,,OVC060,0.00,VWS V14.01,2013-03-02 01:34:00,
2013-03-01 20:39:00,43.7,23.2,29.79,NNE,22,1.1,1.1,44,0.00,,OVC060,0.00,VWS V14.01,2013-03-02 01:39:00,
2013-03-01 20:44:00,43.9,23.4,29.79,NNE,22,1.6,1.6,44,0.00,,OVC065,0.00,VWS V14.01,2013-03-02 01:44:00,
2013-03-01 20:49:00,43.5,23.1,29.79,NNE,22,0.0,0.0,44,0.00,,OVC065,0.00,VWS V14.01,2013-03-02 01:49:00,
2013-03-01 20:54:00,43.3,22.9,29.82,NNE,22,0.0,0.0,44,0.00,,OVC065,0.00,VWS V14.01,2013-03-02 01:54:00,
2013-03-01 20:59:00,43.3,22.9,29.82,NNE,22,0.0,0.0,44,0.00,,OVC065,0.00,VWS V14.01,2013-03-02 01:59:00,
2013-03-01 21:04:00,43.0,22.6,29.82,NNE,22,0.0,0.0,44,0.00,,OVC065,0.00,VWS V14.01,2013-03-02 02:04:00,
2013-03-01 21:09:00,42.8,22.4,29.82,NNE,22,0.0,0.0,44,0.00,,OVC065,0.00,VWS V14.01,2013-03-02 02:09:00,
2013-03-01 21:14:00,42.4,22.6,29.82,NNE,22,0.0,0.0,45,0.00,,OVC065,0.00,VWS V14.01,2013-03-02 02:14:00,
2013-03-01 21:19:00,42.3,22.5,29.82,NNE,22,0.0,0.0,45,0.00,,OVC065,0.00,VWS V14.01,2013-03-02 02:19:00,
2013-03-01 21:24:00,42.3,22.5,29.82,NNE,22,0.0,0.0,45,0.00,,OVC065,0.00,VWS V14.01,2013-03-02 02:24:00,
2013-03-01 21:29:00,42.3,22.5,29.82,NNE,22,0.0,0.0,45,0.00,,OVC065,0.00,VWS V14.01,2013-03-02 02:29:00,
2013-03-01 21:34:00,42.1,22.3,29.82,NNE,22,0.0,0.0,45,0.00,,OVC065,0.00,VWS V14.01,2013-03-02 02:34:00,
2013-03-01 21:39:00,41.9,22.1,29.82,NNE,22,0.0,0.0,45,0.00,,OVC070,0.00,VWS V14.01,2013-03-02 02:39:00,
2013-03-01 21:44:00,41.9,22.1,29.82,NNE,22,0.0,0.0,45,0.00,,OVC070,0.00,VWS V14.01,2013-03-02 02:44:00,
2013-03-01 21:49:00,41.7,22.0,29.82,NNE,22,0.0,0.0,45,0.00,,OVC070,0.00,VWS V14.01,2013-03-02 02:49:00,
2013-03-01 21:54:00,41.5,21.8,29.82,NNE,22,0.0,0.0,45,0.00,,OVC070,0.00,VWS V14.01,2013-03-02 02:54:00,
2013-03-01 21:59:00,41.5,21.8,29.82,NNE,22,2.0,2.0,45,0.00,,OVC070,0.00,VWS V14.01,2013-03-02 02:59:00,
2013-03-01 22:04:00,41.5,21.8,29.82,NE,45,3.4,3.4,45,0.00,,OVC070,0.00,VWS V14.01,2013-03-02 03:04:00,
2013-03-01 22:09:00,41.2,21.5,29.79,NE,45,2.9,2.9,45,0.00,,OVC070,0.00,VWS V14.01,2013-03-02 03:09:00,
2013-03-01 22:14:00,40.8,21.1,29.79,NE,45,1.6,1.6,45,0.00,,OVC070,0.00,VWS V14.01,2013-03-02 03:14:00,
2013-03-01 22:19:00,40.6,21.0,29.79,ESE,112,1.6,1.6,45,0.00,,OVC070,0.00,VWS V14.01,2013-03-02 03:19:00,
2013-03-01 22:24:00,41.0,21.3,29.82,SSW,202,2.2,2.2,45,0.00,,OVC070,0.00,VWS V14.01,2013-03-02 03:24:00,
2013-03-01 22:29:00,40.5,26.9,29.82,SSW,202,0.0,0.0,58,0.00,,OVC070,0.00,VWS V14.01,2013-03-02 03:29:00,
2013-03-01 22:34:00,40.1,28.9,29.82,SSW,202,0.0,0.0,64,0.00,,OVC080,0.00,VWS V14.01,2013-03-02 03:34:00,
2013-03-01 22:39:00,40.1,24.4,29.82,SSW,202,0.0,0.0,53,0.00,,OVC080,0.00,VWS V14.01,2013-03-02 03:39:00,
2013-03-01 22:44:00,39.9,20.8,29.82,SSW,202,0.0,0.0,46,0.00,,OVC080,0.00,VWS V14.01,2013-03-02 03:44:00,
2013-03-01 22:49:00,39.9,20.3,29.82,SSW,202,0.0,0.0,45,0.00,,OVC080,0.00,VWS V14.01,2013-03-02 03:49:00,
2013-03-01 22:54:00,39.9,20.3,29.82,SSW,202,0.0,0.0,45,0.00,,OVC080,0.00,VWS V14.01,2013-03-02 03:54:00,
2013-03-01 22:59:00,39.7,20.1,29.82,SSW,202,0.0,0.0,45,0.00,,OVC080,0.00,VWS V14.01,2013-03-02 03:59:00,
2013-03-01 23:04:00,39.7,20.1,29.82,SSW,202,0.0,0.0,45,0.00,,OVC080,0.00,VWS V14.01,2013-03-02 04:04:00,
2013-03-01 23:09:00,39.7,20.1,29.82,SSW,202,0.0,0.0,45,0.00,,OVC080,0.00,VWS V14.01,2013-03-02 04:09:00,
2013-03-01 23:14:00,39.7,20.7,29.82,West,270,0.0,0.0,46,0.00,,OVC080,0.00,VWS V14.01,2013-03-02 04:14:00,
2013-03-01 23:19:00,39.7,26.2,29.82,West,270,0.0,0.0,58,0.00,,OVC080,0.00,VWS V14.01,2013-03-02 04:19:00,
2013-03-01 23:24:00,39.7,29.7,29.82,West,270,0.0,0.0,67,0.00,,OVC080,0.00,VWS V14.01,2013-03-02 04:24:00,
2013-03-01 23:29:00,39.7,28.6,29.82,West,270,0.0,0.0,64,0.00,,OVC080,0.00,VWS V14.01,2013-03-02 04:29:00,
2013-03-01 23:34:00,39.7,27.4,29.82,West,270,0.0,0.0,61,0.00,,OVC080,0.00,VWS V14.01,2013-03-02 04:34:00,
2013-03-01 23:40:00,39.7,26.2,29.82,West,270,0.0,0.0,58,0.00,,OVC080,0.00,VWS V14.01,2013-03-02 04:40:00,
2013-03-01 23:45:00,39.7,25.3,29.82,West,270,0.0,0.0,56,0.00,,OVC080,0.00,VWS V14.01,2013-03-02 04:45:00,
2013-03-01 23:50:00,39.7,24.0,29.79,West,270,0.0,0.0,53,0.00,,OVC080,0.00,VWS V14.01,2013-03-02 04:50:00,
2013-03-01 23:55:00,39.7,28.6,29.79,West,270,0.0,0.0,64,0.00,,OVC080,0.00,VWS V14.01,2013-03-02 04:55:00,